createdAt,value
2023-02-16T00:02:00.729Z,97066.75
2023-02-16T00:04:31.368Z,97080.25
2023-02-16T00:06:58.590Z,97071.03
2023-02-16T00:09:25.377Z,97070.22
2023-02-16T00:12:11.574Z,97076.25
2023-02-16T00:14:39.923Z,97056.69
2023-02-16T00:17:07.153Z,97076.59
2023-02-16T00:19:40.303Z,97070.78
2023-02-16T00:22:07.971Z,97071.50
2023-02-16T00:24:34.913Z,97054.91
2023-02-16T00:27:04.867Z,97053.41
2023-02-16T00:29:36.909Z,97068.97
2023-02-16T00:32:05.898Z,97061.31
2023-02-16T00:34:35.120Z,97056.44
2023-02-16T00:37:11.133Z,97023.72
2023-02-16T00:39:39.312Z,97043.50
2023-02-16T00:42:20.940Z,97043.09
2023-02-16T00:44:53.798Z,97038.31
2023-02-16T00:47:34.388Z,97046.25
2023-02-16T00:50:18.584Z,97031.81
2023-02-16T00:52:49.078Z,97016.94
2023-02-16T00:55:28.531Z,97035.38
2023-02-16T00:58:05.553Z,97028.94
2023-02-16T01:00:38.008Z,97041.34
2023-02-16T01:03:14.508Z,97039.69
2023-02-16T01:05:41.257Z,97009.09
2023-02-16T01:08:35.245Z,97035.97
2023-02-16T01:11:07.679Z,97036.88
2023-02-16T01:13:45.382Z,97027.84
2023-02-16T01:16:24.040Z,97024.63
2023-02-16T01:18:52.221Z,97034.69
2023-02-16T01:21:21.930Z,97030.97
2023-02-16T01:23:48.646Z,97029.59
2023-02-16T01:26:20.398Z,97022.63
2023-02-16T01:28:51.010Z,97047.41
2023-02-16T01:31:18.266Z,97029.09
2023-02-16T01:33:47.415Z,97037.41
2023-02-16T01:36:38.699Z,97048.81
2023-02-16T01:39:06.752Z,97042.94
2023-02-16T01:41:52.456Z,97051.63
2023-02-16T01:44:29.436Z,97043.00
2023-02-16T01:47:09.897Z,97038.91
2023-02-16T01:49:37.795Z,97036.22
2023-02-16T01:52:14.207Z,97041.84
2023-02-16T01:54:52.933Z,97034.13
2023-02-16T01:57:35.304Z,97037.69
2023-02-16T02:00:27.598Z,97028.56
2023-02-16T02:03:17.834Z,97046.59
2023-02-16T02:05:44.669Z,97030.38
2023-02-16T02:08:29.513Z,97032.06
2023-02-16T02:11:05.907Z,97027.56
2023-02-16T02:13:54.811Z,97027.47
2023-02-16T02:16:26.023Z,97011.22
2023-02-16T02:18:55.090Z,97023.56
2023-02-16T02:22:02.574Z,97024.44
2023-02-16T02:24:56.742Z,97016.41
2023-02-16T02:27:53.394Z,97017.34
2023-02-16T02:30:32.349Z,97018.84
2023-02-16T02:33:05.200Z,97021.13
2023-02-16T02:36:03.317Z,97014.91
2023-02-16T02:39:00.131Z,97019.44
2023-02-16T02:41:57.563Z,97005.31
2023-02-16T02:44:29.089Z,97018.56
2023-02-16T02:46:56.374Z,97007.72
2023-02-16T02:49:23.144Z,96990.28
2023-02-16T02:51:54.406Z,97012.09
2023-02-16T02:54:47.912Z,97017.72
2023-02-16T02:57:40.054Z,97013.81
2023-02-16T03:00:32.425Z,97003.13
2023-02-16T03:03:19.348Z,97009.22
2023-02-16T03:05:53.234Z,97002.78
2023-02-16T03:08:24.748Z,97006.53
2023-02-16T03:11:20.203Z,97005.94
2023-02-16T03:13:50.676Z,97005.00
2023-02-16T03:16:26.251Z,96991.28
2023-02-16T03:19:12.275Z,96995.19
2023-02-16T03:21:59.440Z,97008.19
2023-02-16T03:24:48.836Z,97008.19
2023-02-16T03:27:40.175Z,97021.66
2023-02-16T03:30:09.842Z,97007.59
2023-02-16T03:32:37.793Z,97012.31
2023-02-16T03:35:07.729Z,97000.69
2023-02-16T03:37:36.714Z,97018.44
2023-02-16T03:40:26.278Z,97016.41
2023-02-16T03:42:56.851Z,97004.78
2023-02-16T03:45:24.176Z,97020.78
2023-02-16T03:47:50.905Z,97011.75
2023-02-16T03:50:17.686Z,97015.84
2023-02-16T03:52:46.863Z,97017.34
2023-02-16T03:55:13.856Z,97026.94
2023-02-16T03:57:40.554Z,97007.72
2023-02-16T04:00:12.502Z,97050.81
2023-02-16T04:02:43.162Z,97046.97
2023-02-16T04:05:12.092Z,97031.34
2023-02-16T04:07:41.256Z,97035.88
2023-02-16T04:10:10.285Z,97046.03
2023-02-16T04:12:37.066Z,97040.94
2023-02-16T04:15:10.038Z,97039.44
2023-02-16T04:17:39.782Z,97046.88
2023-02-16T04:20:10.824Z,97019.66
2023-02-16T04:22:37.678Z,97030.53
2023-02-16T04:25:04.683Z,97037.84
2023-02-16T04:27:31.316Z,97034.56
2023-02-16T04:29:57.996Z,97022.47
2023-02-16T04:32:27.356Z,97031.13
2023-02-16T04:34:54.045Z,97016.13
2023-02-16T04:37:21.250Z,97040.69
2023-02-16T04:39:50.179Z,97009.91
2023-02-16T04:42:16.938Z,97022.47
2023-02-16T04:44:43.832Z,97023.25
2023-02-16T04:47:10.626Z,97042.97
2023-02-16T04:49:40.058Z,97029.47
2023-02-16T04:52:07.160Z,97027.56
2023-02-16T04:54:34.051Z,97033.38
2023-02-16T04:57:03.475Z,97040.28
2023-02-16T04:59:32.369Z,96994.50
2023-02-16T05:01:59.116Z,97023.56
2023-02-16T05:04:26.034Z,97031.66
2023-02-16T05:06:52.773Z,97031.56
2023-02-16T05:09:22.195Z,97030.16
2023-02-16T05:12:07.490Z,97037.06
2023-02-16T05:14:45.118Z,97022.63
2023-02-16T05:17:16.397Z,97027.34
2023-02-16T05:19:45.865Z,97042.09
2023-02-16T05:22:13.636Z,97037.25
2023-02-16T05:24:40.664Z,97019.25
2023-02-16T05:27:12.413Z,97023.25
2023-02-16T05:29:41.399Z,97013.81
2023-02-16T05:32:10.530Z,97031.88
2023-02-16T05:34:39.830Z,97009.50
2023-02-16T05:37:06.549Z,97026.72
2023-02-16T05:39:35.698Z,97045.78
2023-02-16T05:42:02.376Z,97008.66
2023-02-16T05:44:29.146Z,97053.44
2023-02-16T05:46:55.946Z,97066.91
2023-02-16T05:49:22.697Z,97049.47
2023-02-16T05:51:49.625Z,97061.22
2023-02-16T05:54:21.692Z,97057.53
2023-02-16T05:56:51.565Z,97058.91
2023-02-16T05:59:18.958Z,97041.19
2023-02-16T06:01:50.691Z,97063.34
2023-02-16T06:04:20.146Z,97053.47
2023-02-16T06:06:46.877Z,97063.34
2023-02-16T06:09:13.637Z,97073.28
2023-02-16T06:11:40.465Z,97054.75
2023-02-16T06:14:14.281Z,97063.34
2023-02-16T06:16:47.397Z,97064.44
2023-02-16T06:19:15.670Z,97067.97
2023-02-16T06:21:45.110Z,97069.41
2023-02-16T06:24:14.704Z,97059.53
2023-02-16T06:26:44.381Z,97070.38
2023-02-16T06:29:11.534Z,97074.59
2023-02-16T06:31:38.349Z,97067.28
2023-02-16T06:34:07.314Z,97069.94
2023-02-16T06:36:37.161Z,97070.28
2023-02-16T06:39:04.195Z,97079.22
2023-02-16T06:41:40.453Z,97082.78
2023-02-16T06:44:14.675Z,97084.94
2023-02-16T06:46:43.301Z,97112.09
2023-02-16T06:49:15.716Z,97099.56
2023-02-16T06:51:42.407Z,97091.50
2023-02-16T06:54:09.124Z,97097.84
2023-02-16T06:56:38.195Z,97101.50
2023-02-16T06:59:11.740Z,97093.09
2023-02-16T07:01:38.502Z,97101.19
2023-02-16T07:04:05.176Z,97104.41
2023-02-16T07:06:34.731Z,97105.31
2023-02-16T07:09:01.446Z,97122.34
2023-02-16T07:11:28.306Z,97103.28
2023-02-16T07:14:01.917Z,97116.13
2023-02-16T07:16:33.562Z,97113.72
2023-02-16T07:19:00.352Z,97108.22
2023-02-16T07:21:29.308Z,97111.53
2023-02-16T07:24:01.014Z,97113.47
2023-02-16T07:26:30.164Z,97107.50
2023-02-16T07:29:01.494Z,97121.75
2023-02-16T07:31:31.333Z,97110.63
2023-02-16T07:33:58.011Z,97110.63
2023-02-16T07:36:27.214Z,97112.41
2023-02-16T07:38:56.125Z,97108.16
2023-02-16T07:41:22.853Z,97105.97
2023-02-16T07:43:54.759Z,97100.03
2023-02-16T07:46:25.986Z,97106.66
2023-02-16T07:48:57.507Z,97117.97
2023-02-16T07:51:31.114Z,97123.09
2023-02-16T07:54:00.874Z,97119.97
2023-02-16T07:56:31.369Z,97114.75
2023-02-16T07:59:02.048Z,97122.88
2023-02-16T08:01:32.066Z,97115.19
2023-02-16T08:04:01.447Z,97117.50
2023-02-16T08:06:28.216Z,97126.22
2023-02-16T08:08:54.847Z,97119.50
2023-02-16T08:11:24.870Z,97105.44
2023-02-16T08:13:54.152Z,97121.66
2023-02-16T08:16:28.167Z,97113.97
2023-02-16T08:19:00.150Z,97142.53
2023-02-16T08:21:34.614Z,97148.22
2023-02-16T08:24:06.044Z,97146.72
2023-02-16T08:26:39.334Z,97140.56
2023-02-16T08:29:15.214Z,97139.50
2023-02-16T08:31:42.121Z,97147.03
2023-02-16T08:34:14.563Z,97137.50
2023-02-16T08:36:45.818Z,97143.00
2023-02-16T08:39:15.568Z,97145.66
2023-02-16T08:41:44.417Z,97131.78
2023-02-16T08:44:15.634Z,97149.25
2023-02-16T08:46:47.638Z,97135.97
2023-02-16T08:49:18.863Z,97130.72
2023-02-16T08:51:48.361Z,97140.34
2023-02-16T08:54:24.478Z,97139.44
2023-02-16T08:56:54.459Z,97137.56
2023-02-16T08:59:22.710Z,97138.53
2023-02-16T09:01:49.502Z,97125.41
2023-02-16T09:04:20.006Z,97132.38
2023-02-16T09:06:50.361Z,97130.31
2023-02-16T09:09:19.835Z,97136.50
2023-02-16T09:11:49.396Z,97134.44
2023-02-16T09:14:18.815Z,97130.69
2023-02-16T09:16:48.064Z,97125.25
2023-02-16T09:19:18.401Z,97129.94
2023-02-16T09:21:50.734Z,97127.09
2023-02-16T09:24:17.687Z,97136.69
2023-02-16T09:26:44.770Z,97119.97
2023-02-16T09:29:12.618Z,97136.28
2023-02-16T09:31:44.454Z,97135.53
2023-02-16T09:34:20.994Z,97133.22
2023-02-16T09:36:51.543Z,97134.34
2023-02-16T09:39:18.810Z,97129.41
2023-02-16T09:42:19.350Z,97132.53
2023-02-16T09:45:04.331Z,97135.44
2023-02-16T09:47:34.177Z,97124.69
2023-02-16T09:50:07.164Z,97128.94
2023-02-16T09:52:42.872Z,97122.44
2023-02-16T09:55:19.080Z,97125.72
2023-02-16T09:58:03.251Z,97125.63
2023-02-16T10:00:33.048Z,97119.00
2023-02-16T10:03:34.529Z,97118.25
2023-02-16T10:06:07.250Z,97117.13
2023-02-16T10:08:39.330Z,97119.28
2023-02-16T10:11:32.786Z,97106.56
2023-02-16T10:14:08.111Z,97115.13
2023-02-16T10:16:42.759Z,97109.16
2023-02-16T10:19:40.036Z,97110.34
2023-02-16T10:22:14.688Z,97109.72
2023-02-16T10:25:24.699Z,97094.69
2023-02-16T10:28:05.238Z,97111.97
2023-02-16T10:30:32.845Z,97108.41
2023-02-16T10:33:43.513Z,97118.47
2023-02-16T10:36:27.461Z,97115.81
2023-02-16T10:39:15.068Z,97113.91
2023-02-16T10:41:50.946Z,97113.50
2023-02-16T10:44:36.124Z,97103.69
2023-02-16T10:47:12.508Z,97108.16
2023-02-16T10:49:39.356Z,97102.50
2023-02-16T10:52:09.719Z,97096.97
2023-02-16T10:54:38.785Z,97097.44
2023-02-16T10:57:13.053Z,97106.72
2023-02-16T10:59:45.052Z,97101.63
2023-02-16T11:02:19.561Z,97096.38
2023-02-16T11:04:52.539Z,97086.66
2023-02-16T11:07:28.603Z,97091.56
2023-02-16T11:09:57.486Z,97098.03
2023-02-16T11:12:44.540Z,97084.84
2023-02-16T11:15:14.404Z,97085.56
2023-02-16T11:18:08.176Z,97079.56
2023-02-16T11:20:47.640Z,97078.47
2023-02-16T11:23:17.456Z,97084.41
2023-02-16T11:26:08.903Z,97070.03
2023-02-16T11:28:42.253Z,97064.22
2023-02-16T11:31:27.345Z,97061.84
2023-02-16T11:34:03.820Z,97057.78
2023-02-16T11:36:33.343Z,97054.38
2023-02-16T11:39:15.995Z,97037.88
2023-02-16T11:41:52.018Z,97039.91
2023-02-16T11:44:30.016Z,97047.66
2023-02-16T11:47:00.753Z,97050.94
2023-02-16T11:49:27.368Z,97040.44
2023-02-16T11:51:54.021Z,97033.31
2023-02-16T11:54:21.426Z,97037.78
2023-02-16T11:57:05.526Z,97027.22
2023-02-16T11:59:40.583Z,97030.97
2023-02-16T12:02:38.978Z,97023.59
2023-02-16T12:05:56.937Z,97016.94
2023-02-16T12:08:48.360Z,97019.69
2023-02-16T12:11:45.600Z,97007.53
2023-02-16T12:14:36.603Z,97008.53
2023-02-16T12:17:31.664Z,97001.34
2023-02-16T12:20:14.996Z,96994.16
2023-02-16T12:22:51.245Z,96990.31
2023-02-16T12:25:33.422Z,96993.66
2023-02-16T12:28:20.777Z,96995.41
2023-02-16T12:31:05.526Z,96993.31
2023-02-16T12:33:53.968Z,96988.31
2023-02-16T12:36:27.363Z,96987.59
2023-02-16T12:39:02.997Z,96988.19
2023-02-16T12:41:38.862Z,96982.50
2023-02-16T12:44:46.154Z,96991.19
2023-02-16T12:47:26.014Z,96990.31
2023-02-16T12:49:57.392Z,96988.56
2023-02-16T12:52:38.063Z,96967.19
2023-02-16T12:55:20.123Z,96965.34
2023-02-16T12:58:08.305Z,96964.63
2023-02-16T13:00:45.346Z,96957.03
2023-02-16T13:03:50.260Z,96955.00
2023-02-16T13:06:34.211Z,96957.38
2023-02-16T13:09:25.013Z,96957.09
2023-02-16T13:12:25.882Z,96954.19
2023-02-16T13:15:02.837Z,96954.44
2023-02-16T13:17:52.809Z,96945.47
2023-02-16T13:20:22.021Z,96948.06
2023-02-16T13:22:57.882Z,96943.44
2023-02-16T13:25:49.663Z,96943.88
2023-02-16T13:29:02.116Z,96942.75
2023-02-16T13:32:06.185Z,96934.38
2023-02-16T13:34:56.596Z,96933.78
2023-02-16T13:37:50.855Z,96937.50
2023-02-16T13:40:35.367Z,96938.13
2023-02-16T13:43:14.384Z,96930.41
2023-02-16T13:45:46.933Z,96924.44
2023-02-16T13:48:26.711Z,96932.75
2023-02-16T13:51:03.945Z,96929.66
2023-02-16T13:53:38.847Z,96934.53
2023-02-16T13:56:13.868Z,96923.81
2023-02-16T13:58:40.911Z,96937.50
2023-02-16T14:01:28.439Z,96928.38
2023-02-16T14:03:57.692Z,96918.84
2023-02-16T14:06:37.924Z,96929.16
2023-02-16T14:09:11.078Z,96921.53
2023-02-16T14:11:53.068Z,96923.00
2023-02-16T14:14:43.432Z,96913.59
2023-02-16T14:17:18.052Z,96918.53
2023-02-16T14:20:06.020Z,96915.69
2023-02-16T14:23:00.788Z,96913.34
2023-02-16T14:25:38.517Z,96921.06
2023-02-16T14:28:22.982Z,96906.66
2023-02-16T14:30:57.880Z,96913.00
2023-02-16T14:33:42.981Z,96913.63
2023-02-16T14:36:20.852Z,96906.44
2023-02-16T14:38:52.080Z,96904.31
2023-02-16T14:41:27.116Z,96895.72
2023-02-16T14:43:59.199Z,96901.22
2023-02-16T14:46:57.668Z,96901.63
2023-02-16T14:50:03.861Z,96911.28
2023-02-16T14:53:06.563Z,96901.63
2023-02-16T14:55:41.724Z,96913.19
2023-02-16T14:58:20.501Z,96911.06
2023-02-16T15:00:55.177Z,96912.44
2023-02-16T15:03:26.624Z,96905.22
2023-02-16T15:06:07.527Z,96907.47
2023-02-16T15:08:49.010Z,96901.41
2023-02-16T15:11:19.119Z,96906.50
2023-02-16T15:13:54.705Z,96901.53
2023-02-16T15:16:24.818Z,96887.38
2023-02-16T15:18:57.816Z,96897.78
2023-02-16T15:21:30.767Z,96897.06
2023-02-16T15:24:03.965Z,96897.69
2023-02-16T15:26:35.769Z,96896.63
2023-02-16T15:29:20.629Z,96888.03
2023-02-16T15:31:52.737Z,96887.28
2023-02-16T15:34:37.970Z,96900.97
2023-02-16T15:37:33.029Z,96897.97
2023-02-16T15:40:30.674Z,96901.47
2023-02-16T15:43:10.052Z,96897.63
2023-02-16T15:45:42.021Z,96897.63
2023-02-16T15:48:21.784Z,96903.44
2023-02-16T15:50:50.686Z,96903.44
2023-02-16T15:53:24.974Z,96906.81
2023-02-16T15:55:55.063Z,96900.34
2023-02-16T15:58:24.284Z,96905.22
2023-02-16T16:00:58.380Z,96899.50
2023-02-16T16:03:25.132Z,96908.69
2023-02-16T16:06:05.186Z,96906.38
2023-02-16T16:08:32.498Z,96914.81
2023-02-16T16:11:01.978Z,96908.25
2023-02-16T16:13:37.543Z,96906.63
2023-02-16T16:16:07.013Z,96911.50
2023-02-16T16:18:37.543Z,96901.72
2023-02-16T16:21:14.575Z,96905.19
2023-02-16T16:23:54.772Z,96915.88
2023-02-16T16:26:28.831Z,96892.34
2023-02-16T16:28:58.033Z,96915.19
2023-02-16T16:31:28.163Z,96917.91
2023-02-16T16:33:58.816Z,96921.13
2023-02-16T16:36:58.397Z,96917.81
2023-02-16T16:39:29.655Z,96922.41
2023-02-16T16:42:24.266Z,96927.88
2023-02-16T16:44:58.990Z,96923.69
2023-02-16T16:47:38.311Z,96926.16
2023-02-16T16:50:09.373Z,96935.47
2023-02-16T16:52:39.071Z,96927.13
2023-02-16T16:55:37.365Z,96939.03
2023-02-16T16:58:06.942Z,96939.28
2023-02-16T17:00:38.548Z,96930.84
2023-02-16T17:03:07.867Z,96933.81
2023-02-16T17:05:40.068Z,96938.16
2023-02-16T17:08:12.081Z,96925.47
2023-02-16T17:10:41.344Z,96926.47
2023-02-16T17:13:16.055Z,96925.34
2023-02-16T17:15:48.721Z,96932.03
2023-02-16T17:18:22.005Z,96932.50
2023-02-16T17:20:52.128Z,96930.50
2023-02-16T17:23:22.921Z,96928.25
2023-02-16T17:25:50.256Z,96927.75
2023-02-16T17:28:22.190Z,96931.56
2023-02-16T17:30:49.077Z,96941.09
2023-02-16T17:33:18.163Z,96933.75
2023-02-16T17:35:50.570Z,96934.81
2023-02-16T17:38:21.659Z,96933.56
2023-02-16T17:41:16.590Z,96928.38
2023-02-16T17:43:45.813Z,96942.56
2023-02-16T17:46:13.483Z,96935.69
2023-02-16T17:48:48.664Z,96945.00
2023-02-16T17:51:21.706Z,96939.63
2023-02-16T17:53:53.179Z,96946.56
2023-02-16T17:56:24.384Z,96942.06
2023-02-16T17:58:54.442Z,96939.44
2023-02-16T18:01:21.702Z,96949.94
2023-02-16T18:03:48.627Z,96941.00
2023-02-16T18:06:17.822Z,96952.53
2023-02-16T18:08:45.204Z,96950.28
2023-02-16T18:11:14.456Z,96955.09
2023-02-16T18:13:41.452Z,96933.28
2023-02-16T18:16:10.984Z,96944.44
2023-02-16T18:18:42.574Z,96952.13
2023-02-16T18:21:09.262Z,96939.09
2023-02-16T18:23:39.073Z,96930.16
2023-02-16T18:26:07.291Z,96940.59
2023-02-16T18:28:36.895Z,96948.22
2023-02-16T18:31:08.698Z,96939.44
2023-02-16T18:33:37.840Z,96924.19
2023-02-16T18:36:06.824Z,96939.69
2023-02-16T18:38:36.565Z,96931.03
2023-02-16T18:41:09.186Z,96960.56
2023-02-16T18:43:38.414Z,96938.41
2023-02-16T18:46:28.028Z,96910.38
2023-02-16T18:48:57.243Z,96912.75
2023-02-16T18:51:29.329Z,96959.00
2023-02-16T18:53:57.697Z,96957.72
2023-02-16T18:56:27.601Z,96962.06
2023-02-16T18:58:56.617Z,96946.97
2023-02-16T19:01:31.617Z,96954.13
2023-02-16T19:04:04.632Z,96922.22
2023-02-16T19:06:31.488Z,97004.84
2023-02-16T19:09:00.005Z,96955.63
2023-02-16T19:11:30.885Z,96966.63
2023-02-16T19:13:57.766Z,96945.94
2023-02-16T19:16:25.124Z,96940.09
2023-02-16T19:18:52.294Z,96926.56
2023-02-16T19:21:28.840Z,96924.06
2023-02-16T19:23:55.758Z,96939.44
2023-02-16T19:26:28.363Z,96965.13
2023-02-16T19:28:55.163Z,96960.28
2023-02-16T19:31:28.495Z,96909.34
2023-02-16T19:33:59.567Z,96932.94
2023-02-16T19:36:30.172Z,96925.88
2023-02-16T19:38:57.505Z,96914.00
2023-02-16T19:41:34.093Z,96957.59
2023-02-16T19:44:01.557Z,96962.41
2023-02-16T19:46:30.414Z,96978.00
2023-02-16T19:49:00.966Z,96933.47
2023-02-16T19:51:29.657Z,96952.22
2023-02-16T19:53:57.075Z,96936.94
2023-02-16T19:56:25.758Z,96955.38
2023-02-16T19:58:55.895Z,96934.22
2023-02-16T20:01:24.766Z,96949.88
2023-02-16T20:03:52.959Z,96937.06
2023-02-16T20:06:24.982Z,96966.41
2023-02-16T20:08:53.399Z,96959.84
2023-02-16T20:11:22.336Z,96949.94
2023-02-16T20:13:49.374Z,96960.38
2023-02-16T20:16:22.127Z,96959.16
2023-02-16T20:18:52.235Z,96932.09
2023-02-16T20:21:25.767Z,96949.03
2023-02-16T20:24:00.035Z,96940.91
2023-02-16T20:26:34.180Z,96941.47
2023-02-16T20:29:07.979Z,96945.59
2023-02-16T20:31:43.559Z,96949.06
2023-02-16T20:34:13.304Z,96953.81
2023-02-16T20:36:40.404Z,96960.38
2023-02-16T20:39:08.368Z,96942.88
2023-02-16T20:41:35.317Z,96971.75
2023-02-16T20:44:03.002Z,96940.16
2023-02-16T20:46:29.955Z,96918.09
2023-02-16T20:48:57.001Z,96929.47
2023-02-16T20:51:24.370Z,96942.00
2023-02-16T20:53:51.252Z,96961.31
2023-02-16T20:56:25.049Z,96941.53
2023-02-16T20:58:55.173Z,96939.63
2023-02-16T21:01:37.515Z,96935.69
2023-02-16T21:04:07.099Z,96930.13
2023-02-16T21:06:35.227Z,96948.22
2023-02-16T21:09:02.211Z,96919.91
2023-02-16T21:11:28.932Z,96929.25
2023-02-16T21:13:56.741Z,96932.88
2023-02-16T21:16:26.225Z,96927.41
2023-02-16T21:18:53.251Z,96944.75
2023-02-16T21:21:20.634Z,96933.81
2023-02-16T21:23:51.327Z,96962.13
2023-02-16T21:26:22.894Z,96929.25
2023-02-16T21:28:54.515Z,96919.81
2023-02-16T21:31:24.592Z,96937.97
2023-02-16T21:33:54.720Z,96939.47
2023-02-16T21:36:24.355Z,96949.97
2023-02-16T21:38:56.604Z,96940.28
2023-02-16T21:41:30.262Z,96921.34
2023-02-16T21:44:09.771Z,96898.28
2023-02-16T21:46:42.410Z,96894.06
2023-02-16T21:49:18.234Z,96930.63
2023-02-16T21:51:47.609Z,96923.47
2023-02-16T21:54:39.073Z,96904.97
2023-02-16T21:57:05.796Z,96894.28
2023-02-16T21:59:34.883Z,96876.91
2023-02-16T22:02:01.788Z,96887.28
2023-02-16T22:04:30.762Z,96921.53
2023-02-16T22:06:59.747Z,96915.09
2023-02-16T22:09:26.399Z,96920.66
2023-02-16T22:11:55.311Z,96918.88
2023-02-16T22:14:25.315Z,96922.88
2023-02-16T22:16:52.178Z,96922.03
2023-02-16T22:19:21.605Z,96917.81
2023-02-16T22:21:53.423Z,96917.81
2023-02-16T22:24:20.432Z,96919.91
2023-02-16T22:26:49.308Z,96912.47
2023-02-16T22:29:20.978Z,96915.69
2023-02-16T22:31:53.256Z,96912.13
2023-02-16T22:34:23.075Z,96914.97
2023-02-16T22:36:50.512Z,96917.09
2023-02-16T22:39:21.176Z,96870.31
2023-02-16T22:41:53.443Z,96919.78
2023-02-16T22:44:22.403Z,96910.88
2023-02-16T22:46:49.254Z,96911.22
2023-02-16T22:49:15.960Z,96918.53
2023-02-16T22:51:43.083Z,96907.78
2023-02-16T22:54:14.365Z,96894.22
2023-02-16T22:56:44.396Z,96910.13
2023-02-16T22:59:13.517Z,96909.28
2023-02-16T23:01:40.785Z,96892.50
2023-02-16T23:04:07.541Z,96902.69
2023-02-16T23:06:37.771Z,96933.94
2023-02-16T23:09:12.390Z,96914.13
2023-02-16T23:11:39.264Z,96911.16
2023-02-16T23:14:16.405Z,96901.44
2023-02-16T23:16:52.354Z,96859.75
2023-02-16T23:19:22.929Z,96908.41
2023-02-16T23:21:50.551Z,96873.03
2023-02-16T23:24:19.599Z,96888.09
2023-02-16T23:26:49.575Z,96907.91
2023-02-16T23:29:17.062Z,96896.25
2023-02-16T23:31:47.834Z,96892.19
2023-02-16T23:34:16.097Z,96908.44
2023-02-16T23:36:45.608Z,96900.63
2023-02-16T23:39:15.993Z,96882.28
2023-02-16T23:41:45.651Z,96893.81
2023-02-16T23:44:14.091Z,96912.66
2023-02-16T23:46:41.398Z,96856.63
2023-02-16T23:49:10.454Z,96891.53
2023-02-16T23:51:42.412Z,96900.78
2023-02-16T23:54:11.590Z,96879.41
2023-02-16T23:56:40.132Z,96896.69
2023-02-16T23:59:06.789Z,96886.25
